Terminal Aerodrome Forecast
Issued by NWS

Home | Current Version | Previous Version | Text Only | Print | Product List | Glossary On
Versions: 1 2 3 4 5 6 7 8 9 10 11 12 13 14 15 16 17
000
FTUS46 KLOX 301700
TAFSBA
TAF
KSBA 301730Z 3018/0118 15003KT P6SM SKC
     FM302000 24008KT P6SM SKC
     FM010400 VRB03KT P6SM SKC
     FM011000 09005KT P6SM SKC=

USA.gov is the U.S. government's official web portal to all federal, state and local government web resources and services.